Hlavní strana
METAR-TAF:

METAR-TAF

Letiště :

Zonguldak, Turecko

zeměpisná šířka: 41-27N, zeměpisná délka: 031-48E, výška: 136 m

Aktuální stav počasí

Zpráva byla vytvořena před 12 hodinami a 50 minutami, v 13:50 UTC
Západní vítr 12 kt
Teplota 11°C
Vlhkost vzduchu 66%
Tlak 1029 hPa
Viditelnost 10 km a více
Polojasno ve výšce 3200 ft

METAR: LTAS 211350Z 28012KT 9999 SCT032 11/05 Q1029

Čas: 05:40 (02:40 UTC)

Předpověď počasí

Zpráva byla vytvořena před 13 hodinami a 0 minutami, v 13:40 UTC
Předpověď platná od 21 v 15 UTC do 21 v 24 UTC
vítr z různých směrů 2 kt
Viditelnost 10 km a více
Žádná oblačnost pod 1500 m, nevyskytují se cumulonimby.

TAF: LTAS 211340Z 2115/2124 VRB02KT CAVOK

Stav a předpovědi počasí z více než 4 000 letišť (zprávy METAR a TAF).

Červené a žluté tečky na mapě představují dostupné meteorologické stanice.

Když kurzor umístíte na tečku, zobrazí se název stanice.

Pak kliknutím zobrazíte stav a předpověď počasí.

Chcete-li změnit mapu, kliknutím na zelené tlačítko se znaménkem +mapu přiblížíte, kliknutím na zelené tlačítko se znaménkem – mapu oddálíte a kliknutím na zelené šipky přejdete na sousední mapy.


METAR-TAF: